sensor_id;sensor_type;location;lat;lon;timestamp;P1;durP1;ratioP1;P2;durP2;ratioP2
18929;SDS011;43305;52.186;5.598;2023-03-20T00:00:37;20.83;;;7.63;;
18929;SDS011;43305;52.186;5.598;2023-03-20T00:03:09;16.92;;;7.55;;
18929;SDS011;43305;52.186;5.598;2023-03-20T00:05:36;16.45;;;6.90;;
18929;SDS011;43305;52.186;5.598;2023-03-20T00:08:04;21.75;;;6.68;;
18929;SDS011;43305;52.186;5.598;2023-03-20T00:10:33;15.70;;;7.05;;
18929;SDS011;43305;52.186;5.598;2023-03-20T00:13:01;21.25;;;6.72;;
18929;SDS011;43305;52.186;5.598;2023-03-20T00:15:29;12.57;;;6.07;;
18929;SDS011;43305;52.186;5.598;2023-03-20T00:17:58;15.23;;;6.32;;
18929;SDS011;43305;52.186;5.598;2023-03-20T00:20:26;16.27;;;6.60;;
18929;SDS011;43305;52.186;5.598;2023-03-20T00:22:53;15.00;;;6.90;;
18929;SDS011;43305;52.186;5.598;2023-03-20T00:25:21;18.33;;;7.72;;
18929;SDS011;43305;52.186;5.598;2023-03-20T00:27:50;21.50;;;8.05;;
18929;SDS011;43305;52.186;5.598;2023-03-20T00:30:19;18.73;;;7.70;;
18929;SDS011;43305;52.186;5.598;2023-03-20T00:32:49;17.38;;;8.27;;
18929;SDS011;43305;52.186;5.598;2023-03-20T00:35:21;16.40;;;8.15;;
18929;SDS011;43305;52.186;5.598;2023-03-20T00:37:51;20.83;;;8.57;;
18929;SDS011;43305;52.186;5.598;2023-03-20T00:40:19;18.65;;;9.10;;
18929;SDS011;43305;52.186;5.598;2023-03-20T00:42:49;25.63;;;9.90;;
18929;SDS011;43305;52.186;5.598;2023-03-20T00:45:19;21.63;;;9.75;;
18929;SDS011;43305;52.186;5.598;2023-03-20T00:47:47;23.35;;;10.82;;
18929;SDS011;43305;52.186;5.598;2023-03-20T00:50:18;20.90;;;10.60;;
18929;SDS011;43305;52.186;5.598;2023-03-20T00:52:47;26.33;;;11.05;;
18929;SDS011;43305;52.186;5.598;2023-03-20T00:55:17;28.02;;;12.00;;
18929;SDS011;43305;52.186;5.598;2023-03-20T00:57:47;27.50;;;12.60;;
18929;SDS011;43305;52.186;5.598;2023-03-20T01:00:20;25.88;;;12.15;;
18929;SDS011;43305;52.186;5.598;2023-03-20T01:02:50;30.85;;;12.98;;
18929;SDS011;43305;52.186;5.598;2023-03-20T01:05:19;30.77;;;13.80;;
18929;SDS011;43305;52.186;5.598;2023-03-20T01:07:46;29.02;;;13.70;;
18929;SDS011;43305;52.186;5.598;2023-03-20T01:10:13;32.17;;;14.48;;
18929;SDS011;43305;52.186;5.598;2023-03-20T01:12:43;29.35;;;14.50;;
18929;SDS011;43305;52.186;5.598;2023-03-20T01:15:14;29.25;;;14.30;;
18929;SDS011;43305;52.186;5.598;2023-03-20T01:17:44;35.00;;;16.05;;
18929;SDS011;43305;52.186;5.598;2023-03-20T01:20:16;32.70;;;15.70;;
18929;SDS011;43305;52.186;5.598;2023-03-20T01:22:45;33.58;;;15.90;;
18929;SDS011;43305;52.186;5.598;2023-03-20T01:25:12;29.75;;;14.70;;
18929;SDS011;43305;52.186;5.598;2023-03-20T01:27:40;34.50;;;15.77;;
18929;SDS011;43305;52.186;5.598;2023-03-20T01:30:14;30.30;;;14.63;;
18929;SDS011;43305;52.186;5.598;2023-03-20T01:32:43;33.80;;;14.93;;
18929;SDS011;43305;52.186;5.598;2023-03-20T01:35:12;32.55;;;14.40;;
18929;SDS011;43305;52.186;5.598;2023-03-20T01:37:40;28.13;;;13.95;;
18929;SDS011;43305;52.186;5.598;2023-03-20T01:40:10;32.15;;;15.00;;
18929;SDS011;43305;52.186;5.598;2023-03-20T01:42:43;35.33;;;13.95;;
18929;SDS011;43305;52.186;5.598;2023-03-20T01:45:13;28.52;;;13.90;;
18929;SDS011;43305;52.186;5.598;2023-03-20T01:47:43;27.35;;;12.93;;
18929;SDS011;43305;52.186;5.598;2023-03-20T01:50:18;27.77;;;13.90;;
18929;SDS011;43305;52.186;5.598;2023-03-20T01:52:47;27.80;;;13.13;;
18929;SDS011;43305;52.186;5.598;2023-03-20T01:55:17;24.58;;;13.13;;
18929;SDS011;43305;52.186;5.598;2023-03-20T01:57:47;28.98;;;13.35;;
18929;SDS011;43305;52.186;5.598;2023-03-20T02:00:17;25.05;;;13.43;;
18929;SDS011;43305;52.186;5.598;2023-03-20T02:02:45;26.48;;;13.65;;
18929;SDS011;43305;52.186;5.598;2023-03-20T02:05:14;24.67;;;13.10;;
18929;SDS011;43305;52.186;5.598;2023-03-20T02:07:45;28.10;;;13.70;;
18929;SDS011;43305;52.186;5.598;2023-03-20T02:10:18;26.75;;;13.57;;
18929;SDS011;43305;52.186;5.598;2023-03-20T02:12:47;26.42;;;13.95;;
18929;SDS011;43305;52.186;5.598;2023-03-20T02:15:14;29.20;;;13.60;;
18929;SDS011;43305;52.186;5.598;2023-03-20T02:17:42;26.17;;;13.02;;
18929;SDS011;43305;52.186;5.598;2023-03-20T02:20:12;26.02;;;13.45;;
18929;SDS011;43305;52.186;5.598;2023-03-20T02:22:58;25.08;;;12.00;;
18929;SDS011;43305;52.186;5.598;2023-03-20T02:25:49;21.88;;;11.55;;
18929;SDS011;43305;52.186;5.598;2023-03-20T02:38:07;22.05;;;9.50;;
18929;SDS011;43305;52.186;5.598;2023-03-20T02:40:50;19.20;;;8.50;;
18929;SDS011;43305;52.186;5.598;2023-03-20T02:43:24;16.08;;;8.00;;
18929;SDS011;43305;52.186;5.598;2023-03-20T02:45:58;18.48;;;8.50;;
18929;SDS011;43305;52.186;5.598;2023-03-20T02:48:36;18.35;;;8.10;;
18929;SDS011;43305;52.186;5.598;2023-03-20T02:51:08;14.52;;;7.75;;
18929;SDS011;43305;52.186;5.598;2023-03-20T02:53:44;15.00;;;6.93;;
18929;SDS011;43305;52.186;5.598;2023-03-20T02:56:17;15.68;;;7.50;;
18929;SDS011;43305;52.186;5.598;2023-03-20T02:58:51;14.07;;;6.88;;
18929;SDS011;43305;52.186;5.598;2023-03-20T03:01:25;11.93;;;6.85;;
18929;SDS011;43305;52.186;5.598;2023-03-20T03:03:57;14.82;;;6.72;;
18929;SDS011;43305;52.186;5.598;2023-03-20T03:06:29;18.58;;;6.70;;
18929;SDS011;43305;52.186;5.598;2023-03-20T03:08:59;17.00;;;6.55;;
18929;SDS011;43305;52.186;5.598;2023-03-20T03:11:30;15.48;;;7.13;;
18929;SDS011;43305;52.186;5.598;2023-03-20T03:14:01;17.55;;;6.70;;
18929;SDS011;43305;52.186;5.598;2023-03-20T03:16:29;14.02;;;6.57;;
18929;SDS011;43305;52.186;5.598;2023-03-20T03:19:02;13.45;;;6.25;;
18929;SDS011;43305;52.186;5.598;2023-03-20T03:21:33;13.68;;;6.82;;
18929;SDS011;43305;52.186;5.598;2023-03-20T03:24:04;14.68;;;6.13;;
18929;SDS011;43305;52.186;5.598;2023-03-20T03:26:32;15.48;;;7.00;;
18929;SDS011;43305;52.186;5.598;2023-03-20T03:29:03;14.98;;;6.57;;
18929;SDS011;43305;52.186;5.598;2023-03-20T03:31:36;19.65;;;7.63;;
18929;SDS011;43305;52.186;5.598;2023-03-20T03:34:03;15.02;;;7.68;;
18929;SDS011;43305;52.186;5.598;2023-03-20T03:36:34;16.95;;;7.72;;
18929;SDS011;43305;52.186;5.598;2023-03-20T03:39:10;16.75;;;7.40;;
18929;SDS011;43305;52.186;5.598;2023-03-20T03:41:43;20.48;;;8.15;;
18929;SDS011;43305;52.186;5.598;2023-03-20T03:44:14;23.00;;;9.43;;
18929;SDS011;43305;52.186;5.598;2023-03-20T03:46:47;23.50;;;10.65;;
18929;SDS011;43305;52.186;5.598;2023-03-20T03:49:18;24.48;;;10.70;;
18929;SDS011;43305;52.186;5.598;2023-03-20T03:51:48;28.55;;;11.38;;
18929;SDS011;43305;52.186;5.598;2023-03-20T03:54:21;33.58;;;11.88;;
18929;SDS011;43305;52.186;5.598;2023-03-20T03:56:50;26.92;;;11.70;;
18929;SDS011;43305;52.186;5.598;2023-03-20T03:59:19;33.88;;;13.48;;
18929;SDS011;43305;52.186;5.598;2023-03-20T04:01:51;29.55;;;12.80;;
18929;SDS011;43305;52.186;5.598;2023-03-20T04:04:19;31.40;;;13.23;;
18929;SDS011;43305;52.186;5.598;2023-03-20T04:06:47;31.70;;;13.20;;
18929;SDS011;43305;52.186;5.598;2023-03-20T04:09:14;34.35;;;13.80;;
18929;SDS011;43305;52.186;5.598;2023-03-20T04:11:42;29.67;;;12.57;;
18929;SDS011;43305;52.186;5.598;2023-03-20T04:14:12;33.85;;;13.70;;
18929;SDS011;43305;52.186;5.598;2023-03-20T04:16:39;28.83;;;12.50;;
18929;SDS011;43305;52.186;5.598;2023-03-20T04:19:06;38.25;;;12.85;;
18929;SDS011;43305;52.186;5.598;2023-03-20T04:21:33;29.63;;;12.00;;
18929;SDS011;43305;52.186;5.598;2023-03-20T04:24:00;26.30;;;11.23;;
18929;SDS011;43305;52.186;5.598;2023-03-20T04:26:26;26.23;;;11.20;;
18929;SDS011;43305;52.186;5.598;2023-03-20T04:28:55;23.20;;;11.48;;
18929;SDS011;43305;52.186;5.598;2023-03-20T04:31:21;26.83;;;11.48;;
18929;SDS011;43305;52.186;5.598;2023-03-20T04:33:49;25.15;;;11.48;;
18929;SDS011;43305;52.186;5.598;2023-03-20T04:36:16;26.27;;;11.13;;
18929;SDS011;43305;52.186;5.598;2023-03-20T04:38:45;32.33;;;11.77;;
18929;SDS011;43305;52.186;5.598;2023-03-20T04:41:12;24.77;;;11.07;;
18929;SDS011;43305;52.186;5.598;2023-03-20T04:43:39;24.05;;;11.50;;
18929;SDS011;43305;52.186;5.598;2023-03-20T04:46:07;28.05;;;11.65;;
18929;SDS011;43305;52.186;5.598;2023-03-20T04:48:34;27.58;;;11.88;;
18929;SDS011;43305;52.186;5.598;2023-03-20T04:51:01;27.83;;;12.18;;
18929;SDS011;43305;52.186;5.598;2023-03-20T04:53:28;24.55;;;11.45;;
18929;SDS011;43305;52.186;5.598;2023-03-20T04:55:55;26.13;;;12.50;;
18929;SDS011;43305;52.186;5.598;2023-03-20T04:58:21;30.58;;;13.00;;
18929;SDS011;43305;52.186;5.598;2023-03-20T05:00:48;30.40;;;13.00;;
18929;SDS011;43305;52.186;5.598;2023-03-20T05:03:17;32.42;;;13.95;;
18929;SDS011;43305;52.186;5.598;2023-03-20T05:05:43;32.08;;;14.13;;
18929;SDS011;43305;52.186;5.598;2023-03-20T05:08:10;31.73;;;14.07;;
18929;SDS011;43305;52.186;5.598;2023-03-20T05:10:37;27.95;;;13.23;;
18929;SDS011;43305;52.186;5.598;2023-03-20T05:13:04;31.40;;;13.65;;
18929;SDS011;43305;52.186;5.598;2023-03-20T05:15:31;32.60;;;14.80;;
18929;SDS011;43305;52.186;5.598;2023-03-20T05:17:57;36.38;;;15.32;;
18929;SDS011;43305;52.186;5.598;2023-03-20T05:20:25;33.95;;;14.85;;
18929;SDS011;43305;52.186;5.598;2023-03-20T05:22:52;32.97;;;14.82;;
18929;SDS011;43305;52.186;5.598;2023-03-20T05:25:19;33.72;;;15.55;;
18929;SDS011;43305;52.186;5.598;2023-03-20T05:27:46;35.60;;;15.50;;
18929;SDS011;43305;52.186;5.598;2023-03-20T05:30:13;30.67;;;14.70;;
18929;SDS011;43305;52.186;5.598;2023-03-20T05:32:40;31.27;;;15.27;;
18929;SDS011;43305;52.186;5.598;2023-03-20T05:35:07;34.35;;;16.08;;
18929;SDS011;43305;52.186;5.598;2023-03-20T05:37:36;34.90;;;16.70;;
18929;SDS011;43305;52.186;5.598;2023-03-20T05:40:04;34.65;;;15.90;;
18929;SDS011;43305;52.186;5.598;2023-03-20T05:42:32;29.90;;;14.35;;
18929;SDS011;43305;52.186;5.598;2023-03-20T05:44:58;34.88;;;15.88;;
18929;SDS011;43305;52.186;5.598;2023-03-20T05:47:25;31.17;;;15.32;;
18929;SDS011;43305;52.186;5.598;2023-03-20T05:49:52;37.40;;;16.70;;
18929;SDS011;43305;52.186;5.598;2023-03-20T05:52:19;33.58;;;16.05;;
18929;SDS011;43305;52.186;5.598;2023-03-20T05:54:47;33.80;;;15.48;;
18929;SDS011;43305;52.186;5.598;2023-03-20T05:57:14;40.08;;;15.70;;
18929;SDS011;43305;52.186;5.598;2023-03-20T05:59:41;31.30;;;15.65;;
18929;SDS011;43305;52.186;5.598;2023-03-20T06:02:09;32.90;;;15.85;;
18929;SDS011;43305;52.186;5.598;2023-03-20T06:04:35;35.00;;;15.73;;
18929;SDS011;43305;52.186;5.598;2023-03-20T06:07:03;34.03;;;15.80;;
18929;SDS011;43305;52.186;5.598;2023-03-20T06:09:30;34.60;;;15.73;;
18929;SDS011;43305;52.186;5.598;2023-03-20T06:11:58;32.30;;;15.25;;
18929;SDS011;43305;52.186;5.598;2023-03-20T06:14:25;29.38;;;15.20;;
18929;SDS011;43305;52.186;5.598;2023-03-20T06:16:52;27.58;;;14.40;;
18929;SDS011;43305;52.186;5.598;2023-03-20T06:19:21;33.05;;;15.93;;
18929;SDS011;43305;52.186;5.598;2023-03-20T06:21:51;28.33;;;15.13;;
18929;SDS011;43305;52.186;5.598;2023-03-20T06:24:20;32.75;;;15.27;;
18929;SDS011;43305;52.186;5.598;2023-03-20T06:26:47;29.17;;;14.55;;
18929;SDS011;43305;52.186;5.598;2023-03-20T06:29:15;27.88;;;14.38;;
18929;SDS011;43305;52.186;5.598;2023-03-20T06:31:42;26.45;;;14.43;;
18929;SDS011;43305;52.186;5.598;2023-03-20T06:34:09;28.27;;;13.60;;
18929;SDS011;43305;52.186;5.598;2023-03-20T06:36:36;31.00;;;13.52;;
18929;SDS011;43305;52.186;5.598;2023-03-20T06:39:03;32.85;;;13.93;;
18929;SDS011;43305;52.186;5.598;2023-03-20T06:41:30;32.08;;;13.68;;
18929;SDS011;43305;52.186;5.598;2023-03-20T06:43:57;34.67;;;13.32;;
18929;SDS011;43305;52.186;5.598;2023-03-20T06:46:25;25.50;;;13.38;;
18929;SDS011;43305;52.186;5.598;2023-03-20T06:48:52;28.08;;;12.98;;
18929;SDS011;43305;52.186;5.598;2023-03-20T06:51:19;34.05;;;14.05;;
18929;SDS011;43305;52.186;5.598;2023-03-20T06:53:46;34.17;;;14.02;;
18929;SDS011;43305;52.186;5.598;2023-03-20T06:56:13;26.40;;;13.35;;
18929;SDS011;43305;52.186;5.598;2023-03-20T06:58:40;26.52;;;13.18;;
18929;SDS011;43305;52.186;5.598;2023-03-20T07:01:08;24.60;;;12.75;;
18929;SDS011;43305;52.186;5.598;2023-03-20T07:03:37;28.33;;;13.18;;
18929;SDS011;43305;52.186;5.598;2023-03-20T07:06:05;24.63;;;12.68;;
18929;SDS011;43305;52.186;5.598;2023-03-20T07:08:33;28.05;;;12.98;;
18929;SDS011;43305;52.186;5.598;2023-03-20T07:11:00;26.33;;;12.43;;
18929;SDS011;43305;52.186;5.598;2023-03-20T07:13:28;27.65;;;12.15;;
18929;SDS011;43305;52.186;5.598;2023-03-20T07:15:55;30.20;;;13.00;;
18929;SDS011;43305;52.186;5.598;2023-03-20T07:18:22;28.40;;;11.73;;
18929;SDS011;43305;52.186;5.598;2023-03-20T07:20:51;31.70;;;12.18;;
18929;SDS011;43305;52.186;5.598;2023-03-20T07:23:19;29.77;;;12.63;;
18929;SDS011;43305;52.186;5.598;2023-03-20T07:25:46;28.40;;;12.35;;
18929;SDS011;43305;52.186;5.598;2023-03-20T07:28:15;29.33;;;11.70;;
18929;SDS011;43305;52.186;5.598;2023-03-20T07:30:42;23.77;;;11.43;;
18929;SDS011;43305;52.186;5.598;2023-03-20T07:33:09;32.50;;;12.93;;
18929;SDS011;43305;52.186;5.598;2023-03-20T07:35:36;27.83;;;11.68;;
18929;SDS011;43305;52.186;5.598;2023-03-20T07:38:05;24.75;;;10.75;;
18929;SDS011;43305;52.186;5.598;2023-03-20T07:40:32;21.67;;;10.65;;
18929;SDS011;43305;52.186;5.598;2023-03-20T07:42:58;27.55;;;11.23;;
18929;SDS011;43305;52.186;5.598;2023-03-20T07:45:26;27.00;;;10.95;;
18929;SDS011;43305;52.186;5.598;2023-03-20T07:47:52;24.05;;;10.40;;
18929;SDS011;43305;52.186;5.598;2023-03-20T07:50:19;23.85;;;10.73;;
18929;SDS011;43305;52.186;5.598;2023-03-20T07:52:46;28.02;;;10.75;;
18929;SDS011;43305;52.186;5.598;2023-03-20T07:55:15;27.75;;;9.90;;
18929;SDS011;43305;52.186;5.598;2023-03-20T07:57:42;23.10;;;10.52;;
18929;SDS011;43305;52.186;5.598;2023-03-20T08:00:10;21.25;;;9.90;;
18929;SDS011;43305;52.186;5.598;2023-03-20T08:02:37;24.40;;;9.00;;
18929;SDS011;43305;52.186;5.598;2023-03-20T08:05:04;23.25;;;10.20;;
18929;SDS011;43305;52.186;5.598;2023-03-20T08:07:32;22.80;;;9.77;;
18929;SDS011;43305;52.186;5.598;2023-03-20T08:09:59;21.23;;;9.63;;
18929;SDS011;43305;52.186;5.598;2023-03-20T08:12:27;29.38;;;9.52;;
18929;SDS011;43305;52.186;5.598;2023-03-20T08:14:53;21.20;;;8.82;;
18929;SDS011;43305;52.186;5.598;2023-03-20T08:17:20;25.42;;;9.18;;
18929;SDS011;43305;52.186;5.598;2023-03-20T08:19:47;21.05;;;8.90;;
18929;SDS011;43305;52.186;5.598;2023-03-20T08:22:14;24.13;;;8.93;;
18929;SDS011;43305;52.186;5.598;2023-03-20T08:24:41;21.35;;;8.70;;
18929;SDS011;43305;52.186;5.598;2023-03-20T08:27:08;19.05;;;7.97;;
18929;SDS011;43305;52.186;5.598;2023-03-20T08:29:36;21.80;;;8.75;;
18929;SDS011;43305;52.186;5.598;2023-03-20T08:32:03;21.45;;;8.05;;
18929;SDS011;43305;52.186;5.598;2023-03-20T08:34:30;17.65;;;8.10;;
18929;SDS011;43305;52.186;5.598;2023-03-20T08:36:57;23.75;;;8.25;;
18929;SDS011;43305;52.186;5.598;2023-03-20T08:39:24;18.75;;;8.45;;
18929;SDS011;43305;52.186;5.598;2023-03-20T08:41:51;20.95;;;7.95;;
18929;SDS011;43305;52.186;5.598;2023-03-20T08:44:18;22.73;;;7.70;;
18929;SDS011;43305;52.186;5.598;2023-03-20T08:46:48;22.95;;;8.00;;
18929;SDS011;43305;52.186;5.598;2023-03-20T08:49:15;19.50;;;8.32;;
18929;SDS011;43305;52.186;5.598;2023-03-20T08:51:42;17.60;;;7.60;;
18929;SDS011;43305;52.186;5.598;2023-03-20T08:54:10;15.70;;;7.30;;
18929;SDS011;43305;52.186;5.598;2023-03-20T08:56:39;15.93;;;6.95;;
18929;SDS011;43305;52.186;5.598;2023-03-20T08:59:06;19.27;;;7.50;;
18929;SDS011;43305;52.186;5.598;2023-03-20T09:01:33;21.52;;;7.32;;
18929;SDS011;43305;52.186;5.598;2023-03-20T09:04:01;22.02;;;7.47;;
18929;SDS011;43305;52.186;5.598;2023-03-20T09:06:28;15.90;;;6.60;;
18929;SDS011;43305;52.186;5.598;2023-03-20T09:08:55;18.42;;;6.80;;
18929;SDS011;43305;52.186;5.598;2023-03-20T09:11:22;18.77;;;6.40;;
18929;SDS011;43305;52.186;5.598;2023-03-20T09:13:49;17.20;;;6.50;;
18929;SDS011;43305;52.186;5.598;2023-03-20T09:16:16;17.73;;;6.13;;
18929;SDS011;43305;52.186;5.598;2023-03-20T09:18:44;18.27;;;6.40;;
18929;SDS011;43305;52.186;5.598;2023-03-20T09:21:12;17.50;;;6.00;;
18929;SDS011;43305;52.186;5.598;2023-03-20T09:23:39;15.85;;;6.13;;
18929;SDS011;43305;52.186;5.598;2023-03-20T09:26:05;16.75;;;6.70;;
18929;SDS011;43305;52.186;5.598;2023-03-20T09:28:32;16.90;;;6.07;;
18929;SDS011;43305;52.186;5.598;2023-03-20T09:30:59;13.40;;;6.03;;
18929;SDS011;43305;52.186;5.598;2023-03-20T09:33:26;12.13;;;5.90;;
18929;SDS011;43305;52.186;5.598;2023-03-20T09:35:53;11.15;;;5.60;;
18929;SDS011;43305;52.186;5.598;2023-03-20T09:38:22;14.95;;;6.13;;
18929;SDS011;43305;52.186;5.598;2023-03-20T09:40:50;15.27;;;6.05;;
18929;SDS011;43305;52.186;5.598;2023-03-20T09:43:21;19.67;;;6.03;;
18929;SDS011;43305;52.186;5.598;2023-03-20T09:46:00;15.20;;;5.10;;
18929;SDS011;43305;52.186;5.598;2023-03-20T09:48:39;15.02;;;5.65;;
18929;SDS011;43305;52.186;5.598;2023-03-20T09:51:13;14.18;;;5.75;;
18929;SDS011;43305;52.186;5.598;2023-03-20T09:53:48;15.90;;;5.63;;
18929;SDS011;43305;52.186;5.598;2023-03-20T09:56:19;15.18;;;5.95;;
18929;SDS011;43305;52.186;5.598;2023-03-20T09:58:51;16.90;;;6.60;;
18929;SDS011;43305;52.186;5.598;2023-03-20T10:01:21;18.42;;;6.47;;
18929;SDS011;43305;52.186;5.598;2023-03-20T10:03:51;18.98;;;5.90;;
18929;SDS011;43305;52.186;5.598;2023-03-20T10:06:21;14.60;;;6.10;;
18929;SDS011;43305;52.186;5.598;2023-03-20T10:08:49;16.90;;;5.90;;
18929;SDS011;43305;52.186;5.598;2023-03-20T10:11:31;21.42;;;6.70;;
18929;SDS011;43305;52.186;5.598;2023-03-20T10:14:15;19.60;;;6.32;;
18929;SDS011;43305;52.186;5.598;2023-03-20T10:16:51;15.18;;;5.82;;
18929;SDS011;43305;52.186;5.598;2023-03-20T10:19:27;15.57;;;6.28;;
18929;SDS011;43305;52.186;5.598;2023-03-20T10:21:56;17.02;;;6.32;;
18929;SDS011;43305;52.186;5.598;2023-03-20T10:24:29;15.77;;;5.75;;
18929;SDS011;43305;52.186;5.598;2023-03-20T10:27:01;16.25;;;5.85;;
18929;SDS011;43305;52.186;5.598;2023-03-20T10:29:32;14.23;;;5.60;;
18929;SDS011;43305;52.186;5.598;2023-03-20T10:32:10;20.40;;;6.15;;
18929;SDS011;43305;52.186;5.598;2023-03-20T10:34:49;17.58;;;6.07;;
18929;SDS011;43305;52.186;5.598;2023-03-20T10:37:35;14.15;;;5.85;;
18929;SDS011;43305;52.186;5.598;2023-03-20T10:40:21;12.00;;;5.38;;
18929;SDS011;43305;52.186;5.598;2023-03-20T10:42:51;13.75;;;5.00;;
18929;SDS011;43305;52.186;5.598;2023-03-20T10:45:24;13.27;;;5.45;;
18929;SDS011;43305;52.186;5.598;2023-03-20T10:47:56;12.45;;;4.70;;
18929;SDS011;43305;52.186;5.598;2023-03-20T10:50:28;17.55;;;5.20;;
18929;SDS011;43305;52.186;5.598;2023-03-20T10:52:58;12.57;;;4.65;;
18929;SDS011;43305;52.186;5.598;2023-03-20T10:55:29;14.43;;;4.68;;
18929;SDS011;43305;52.186;5.598;2023-03-20T10:58:01;13.38;;;4.63;;
18929;SDS011;43305;52.186;5.598;2023-03-20T11:00:30;10.77;;;4.82;;
18929;SDS011;43305;52.186;5.598;2023-03-20T11:02:57;12.73;;;5.10;;
18929;SDS011;43305;52.186;5.598;2023-03-20T11:05:27;15.40;;;5.10;;
18929;SDS011;43305;52.186;5.598;2023-03-20T11:07:59;18.10;;;5.22;;
18929;SDS011;43305;52.186;5.598;2023-03-20T11:10:33;17.13;;;5.00;;
18929;SDS011;43305;52.186;5.598;2023-03-20T11:13:03;12.68;;;4.80;;
18929;SDS011;43305;52.186;5.598;2023-03-20T11:15:40;13.88;;;5.25;;
18929;SDS011;43305;52.186;5.598;2023-03-20T11:18:08;15.70;;;4.82;;
18929;SDS011;43305;52.186;5.598;2023-03-20T11:20:39;12.43;;;4.40;;
18929;SDS011;43305;52.186;5.598;2023-03-20T11:23:13;17.58;;;5.40;;
18929;SDS011;43305;52.186;5.598;2023-03-20T11:25:47;15.65;;;5.45;;
18929;SDS011;43305;52.186;5.598;2023-03-20T11:28:17;14.18;;;5.18;;
18929;SDS011;43305;52.186;5.598;2023-03-20T11:30:55;15.60;;;5.07;;
18929;SDS011;43305;52.186;5.598;2023-03-20T11:33:24;15.98;;;5.00;;
18929;SDS011;43305;52.186;5.598;2023-03-20T11:35:53;13.38;;;4.53;;
18929;SDS011;43305;52.186;5.598;2023-03-20T11:38:24;12.73;;;5.22;;
18929;SDS011;43305;52.186;5.598;2023-03-20T11:40:52;16.30;;;5.60;;
18929;SDS011;43305;52.186;5.598;2023-03-20T11:43:21;16.17;;;6.07;;
18929;SDS011;43305;52.186;5.598;2023-03-20T11:45:49;18.45;;;6.20;;
18929;SDS011;43305;52.186;5.598;2023-03-20T11:48:21;16.38;;;6.25;;
18929;SDS011;43305;52.186;5.598;2023-03-20T11:50:51;15.32;;;6.30;;
18929;SDS011;43305;52.186;5.598;2023-03-20T11:53:25;21.83;;;7.30;;
18929;SDS011;43305;52.186;5.598;2023-03-20T11:56:05;17.20;;;7.55;;
18929;SDS011;43305;52.186;5.598;2023-03-20T11:58:36;20.27;;;7.78;;
18929;SDS011;43305;52.186;5.598;2023-03-20T12:01:14;18.95;;;7.88;;
18929;SDS011;43305;52.186;5.598;2023-03-20T12:03:42;15.90;;;7.85;;
18929;SDS011;43305;52.186;5.598;2023-03-20T12:06:15;21.75;;;8.10;;
18929;SDS011;43305;52.186;5.598;2023-03-20T12:08:49;23.27;;;9.48;;
18929;SDS011;43305;52.186;5.598;2023-03-20T12:11:30;20.95;;;8.50;;
18929;SDS011;43305;52.186;5.598;2023-03-20T12:14:07;27.05;;;9.85;;
18929;SDS011;43305;52.186;5.598;2023-03-20T12:16:41;25.48;;;9.68;;
18929;SDS011;43305;52.186;5.598;2023-03-20T12:19:10;21.05;;;9.95;;
18929;SDS011;43305;52.186;5.598;2023-03-20T12:21:43;24.70;;;9.70;;
18929;SDS011;43305;52.186;5.598;2023-03-20T12:24:16;28.88;;;10.35;;
18929;SDS011;43305;52.186;5.598;2023-03-20T12:26:55;27.17;;;10.50;;
18929;SDS011;43305;52.186;5.598;2023-03-20T12:29:42;24.83;;;10.25;;
18929;SDS011;43305;52.186;5.598;2023-03-20T12:32:16;25.27;;;10.30;;
18929;SDS011;43305;52.186;5.598;2023-03-20T12:34:50;23.73;;;10.40;;
18929;SDS011;43305;52.186;5.598;2023-03-20T12:37:20;26.65;;;10.52;;
18929;SDS011;43305;52.186;5.598;2023-03-20T12:39:48;24.35;;;10.65;;
18929;SDS011;43305;52.186;5.598;2023-03-20T12:42:23;25.88;;;11.45;;
18929;SDS011;43305;52.186;5.598;2023-03-20T12:45:03;27.25;;;11.27;;
18929;SDS011;43305;52.186;5.598;2023-03-20T12:47:41;28.02;;;11.52;;
18929;SDS011;43305;52.186;5.598;2023-03-20T12:50:36;22.50;;;11.82;;
18929;SDS011;43305;52.186;5.598;2023-03-20T12:53:12;30.35;;;13.27;;
18929;SDS011;43305;52.186;5.598;2023-03-20T12:55:55;27.77;;;12.68;;
18929;SDS011;43305;52.186;5.598;2023-03-20T12:58:34;28.80;;;13.68;;
18929;SDS011;43305;52.186;5.598;2023-03-20T13:01:07;29.77;;;14.57;;
18929;SDS011;43305;52.186;5.598;2023-03-20T13:03:50;28.70;;;14.30;;
18929;SDS011;43305;52.186;5.598;2023-03-20T13:06:39;30.42;;;14.57;;
18929;SDS011;43305;52.186;5.598;2023-03-20T13:12:30;31.13;;;15.02;;
18929;SDS011;43305;52.186;5.598;2023-03-20T13:15:09;30.00;;;14.48;;
18929;SDS011;43305;52.186;5.598;2023-03-20T13:17:43;29.33;;;14.52;;
18929;SDS011;43305;52.186;5.598;2023-03-20T13:20:23;33.10;;;15.35;;
18929;SDS011;43305;52.186;5.598;2023-03-20T13:23:08;27.55;;;15.18;;
18929;SDS011;43305;52.186;5.598;2023-03-20T13:25:45;27.75;;;13.65;;
18929;SDS011;43305;52.186;5.598;2023-03-20T13:28:29;30.67;;;13.50;;
18929;SDS011;43305;52.186;5.598;2023-03-20T13:31:03;35.22;;;15.18;;
18929;SDS011;43305;52.186;5.598;2023-03-20T13:33:42;33.58;;;14.27;;
18929;SDS011;43305;52.186;5.598;2023-03-20T13:36:19;29.42;;;14.43;;
18929;SDS011;43305;52.186;5.598;2023-03-20T13:38:56;32.55;;;13.98;;
18929;SDS011;43305;52.186;5.598;2023-03-20T13:41:27;30.23;;;14.93;;
18929;SDS011;43305;52.186;5.598;2023-03-20T13:43:59;30.25;;;14.27;;
18929;SDS011;43305;52.186;5.598;2023-03-20T13:46:31;33.47;;;15.00;;
18929;SDS011;43305;52.186;5.598;2023-03-20T13:49:03;30.50;;;14.88;;
18929;SDS011;43305;52.186;5.598;2023-03-20T13:51:35;30.30;;;14.50;;
18929;SDS011;43305;52.186;5.598;2023-03-20T13:54:13;34.20;;;14.93;;
18929;SDS011;43305;52.186;5.598;2023-03-20T13:56:51;37.05;;;15.13;;
18929;SDS011;43305;52.186;5.598;2023-03-20T13:59:29;29.52;;;14.73;;
18929;SDS011;43305;52.186;5.598;2023-03-20T14:02:09;30.60;;;14.85;;
18929;SDS011;43305;52.186;5.598;2023-03-20T14:04:46;35.63;;;14.23;;
18929;SDS011;43305;52.186;5.598;2023-03-20T14:07:27;31.08;;;15.13;;
18929;SDS011;43305;52.186;5.598;2023-03-20T14:12:59;34.65;;;14.57;;
18929;SDS011;43305;52.186;5.598;2023-03-20T14:15:30;28.30;;;14.60;;
18929;SDS011;43305;52.186;5.598;2023-03-20T14:18:03;30.70;;;14.60;;
18929;SDS011;43305;52.186;5.598;2023-03-20T14:20:31;30.83;;;15.05;;
18929;SDS011;43305;52.186;5.598;2023-03-20T14:23:00;31.45;;;14.82;;
18929;SDS011;43305;52.186;5.598;2023-03-20T14:25:32;32.15;;;15.30;;
18929;SDS011;43305;52.186;5.598;2023-03-20T14:28:05;30.70;;;15.25;;
18929;SDS011;43305;52.186;5.598;2023-03-20T14:30:47;33.90;;;16.00;;
18929;SDS011;43305;52.186;5.598;2023-03-20T14:33:29;26.00;;;14.27;;
18929;SDS011;43305;52.186;5.598;2023-03-20T14:36:09;31.77;;;15.20;;
18929;SDS011;43305;52.186;5.598;2023-03-20T14:38:43;34.47;;;15.05;;
18929;SDS011;43305;52.186;5.598;2023-03-20T14:41:18;29.20;;;15.30;;
18929;SDS011;43305;52.186;5.598;2023-03-20T14:43:53;36.92;;;16.35;;
18929;SDS011;43305;52.186;5.598;2023-03-20T14:46:26;29.23;;;16.20;;
18929;SDS011;43305;52.186;5.598;2023-03-20T14:49:03;37.20;;;17.15;;
18929;SDS011;43305;52.186;5.598;2023-03-20T14:51:48;32.00;;;15.50;;
18929;SDS011;43305;52.186;5.598;2023-03-20T14:54:22;36.00;;;16.45;;
18929;SDS011;43305;52.186;5.598;2023-03-20T14:56:53;31.88;;;16.63;;
18929;SDS011;43305;52.186;5.598;2023-03-20T14:59:21;34.35;;;16.42;;
18929;SDS011;43305;52.186;5.598;2023-03-20T15:01:53;33.13;;;16.13;;